Lackland Air Force Base (Kelly Field Annex) Airport
KSKF : now visible

Airfield :











YOU CAN JOIN US ON...

 
LOGIN :

Register | Disclaimer

   EN    FR    IT 

 









Legend :    VFR   Marginal VFR   IFR   Intensive IFR   Very Intensive IFR
Visi :
Ceiling :
>= 8 km
>= 3000ft
5 to 8 km
1000 to 3000 ft
1500m to 5 km
500 to 1000 ft
800 to 1500m
200 to 500 ft
< 800m
< 200 ft
Symbols :   Thunderstorms  Fog  Heavy snow  Heavy precipitations  Wind > 20 kt







- Airport Elevation : 691 ft


KSKF - Lackland Air Force Base (Kelly Field Annex)

CURRENT METAR :
  • 181156Z AUTO 00000KT 10SM CLR 24/22 A2988 RMK AO2 SLP110 T02350217 10262 20225 53005 $

EXPIRED METARs :
  • 181056Z AUTO 32004KT 10SM CLR 23/21 A2986 RMK AO2 SLP103 T02300212 $
  • 180956Z AUTO 32004KT 10SM CLR 23/21 A2986 RMK AO2 SLP103 T02260214 $
  • 180856Z AUTO 00000KT 10SM CLR 23/21 A2987 RMK AO2 SLP107 T02300214 58009 $

TAF TAF KSKF
Valid from the 18 at 10:00 until the 19 at 16:00 UTC


181000Z 1810/1916 VRB04KT 9999 FEW010 QNH2985INS
BECMG 1817/1818 VRB06KT 9999 SCT050 SCT250 QNH2977INS
TEMPO 1819/1900 VRB15G25KT VCTS BKN040CB BKN120
BECMG 1901/1902 11005KT 9999 FEW080 FEW250 QNH2979INS TX36/1821Z TN22/1812Z
No reported NOTAMs for that airfield.



MET'MAP, your aeronautical weather chart ! - Copyright ORBIFLY December 2007 - Disclaimer

ORBIFLY MET'MAP TEAM :

Programming & Development : Alexandra Zaïnal
Concept & Development : Baudouin d'Aumeries
Co-Development & Prog : Marc-Olivier Méhu
Technical & hardware support : Manuel Goepfert

Contact : metmap@orbifly.com




SOURCES & CREDITS :

   NOAA       Earth
Advisory